Time;durP1;ratioP1;P1;durP2;ratioP2;P2;SDS_P1;SDS_P2;PMS_P1;PMS_P2;Temp;Humidity;BMP_temperature;BMP_pressure;BME280_temperature;BME280_humidity;BME280_pressure;Samples;Min_cycle;Max_cycle;Signal;HPM_P1;HPM_P2
2021/03/20 00:02:16;;;;;;;6.67;2.17;;;-1.10;99.90;;;;;;12579514;28;20041;-82
2021/03/20 00:08:21;;;;;;;5.95;1.88;;;-1.20;99.90;;;;;;12580799;28;20052;-82
2021/03/20 00:14:24;;;;;;;6.55;2.20;;;-1.10;99.90;;;;;;12576706;28;20520;-82
2021/03/20 00:20:30;;;;;;;5.75;2.78;;;-1.20;99.90;;;;;;12590480;28;20427;-82
2021/03/20 00:26:32;;;;;;;7.25;2.38;;;-1.20;99.90;;;;;;12581821;28;20133;-82
2021/03/20 00:32:33;;;;;;;6.70;2.03;;;-1.40;99.90;;;;;;12564542;28;20079;-82
2021/03/20 00:38:36;;;;;;;6.72;2.10;;;-1.50;99.90;;;;;;12564943;28;20056;-82
2021/03/20 00:44:37;;;;;;;5.55;2.03;;;-1.60;99.90;;;;;;12568511;28;20064;-82
2021/03/20 00:50:40;;;;;;;5.30;2.22;;;-1.50;99.90;;;;;;12574919;28;20044;-83
2021/03/20 00:56:41;;;;;;;6.55;2.10;;;-1.40;99.90;;;;;;12570726;28;20108;-82
2021/03/20 01:02:43;;;;;;;6.53;2.22;;;-1.40;99.90;;;;;;12563288;28;20135;-82
2021/03/20 01:08:46;;;;;;;4.15;1.83;;;-1.50;99.90;;;;;;12576072;28;20086;-82
2021/03/20 01:14:47;;;;;;;6.60;2.10;;;-1.40;99.90;;;;;;12570256;28;20084;-82
2021/03/20 01:20:49;;;;;;;6.93;2.45;;;-1.50;99.90;;;;;;12564513;28;20117;-82
2021/03/20 01:26:50;;;;;;;4.50;2.30;;;-1.60;99.90;;;;;;12567611;28;20105;-81
2021/03/20 01:32:52;;;;;;;5.07;2.28;;;-1.60;99.90;;;;;;12567904;28;20200;-82
2021/03/20 01:38:53;;;;;;;5.80;2.25;;;-1.70;99.90;;;;;;12570060;28;20514;-82
2021/03/20 01:45:31;;;;;;;6.75;2.42;;;-1.80;99.90;;;;;;12570454;28;20459;-82
2021/03/20 01:51:32;;;;;;;6.90;2.83;;;-1.90;99.90;;;;;;12497295;28;20097;-82
2021/03/20 01:57:47;;;;;;;11.02;2.20;;;-2.00;99.90;;;;;;12594104;28;20085;-82
2021/03/20 02:03:50;;;;;;;6.97;2.20;;;-2.00;99.90;;;;;;12598067;28;20040;-82
2021/03/20 02:09:51;;;;;;;4.00;2.00;;;-2.10;99.90;;;;;;12593224;28;20112;-82
2021/03/20 02:16:00;;;;;;;5.05;1.95;;;-2.10;99.90;;;;;;12601458;28;20149;-82
2021/03/20 02:22:05;;;;;;;3.85;2.05;;;-2.10;99.90;;;;;;12587544;28;20044;-82
2021/03/20 02:28:19;;;;;;;4.82;2.03;;;-1.90;99.90;;;;;;12602138;28;20061;-82
2021/03/20 02:34:46;;;;;;;6.07;2.03;;;-2.00;99.90;;;;;;12582095;28;20695;-82
2021/03/20 02:41:05;;;;;;;4.78;2.13;;;-2.10;99.90;;;;;;12595727;28;20051;-82
2021/03/20 02:47:09;;;;;;;4.85;2.38;;;-2.20;99.90;;;;;;12581708;28;20175;-82
2021/03/20 02:53:19;;;;;;;4.25;2.10;;;-2.30;99.90;;;;;;12590484;28;20169;-82
2021/03/20 02:59:25;;;;;;;5.25;2.30;;;-2.30;99.90;;;;;;12594446;28;20475;-82
2021/03/20 03:05:31;;;;;;;5.47;2.25;;;-2.30;99.90;;;;;;12588423;28;20127;-82
2021/03/20 03:11:40;;;;;;;6.65;2.95;;;-2.20;99.90;;;;;;12575839;28;20334;-82
2021/03/20 03:17:50;;;;;;;10.52;2.50;;;-2.20;99.90;;;;;;12543615;28;20179;-82
2021/03/20 03:23:52;;;;;;;6.07;2.40;;;-2.30;99.90;;;;;;12520140;28;20041;-82
2021/03/20 03:29:53;;;;;;;5.07;2.20;;;-2.30;99.90;;;;;;12534780;28;20056;-82
2021/03/20 03:35:58;;;;;;;5.63;2.08;;;-2.30;99.90;;;;;;12535654;28;20073;-82
2021/03/20 03:42:01;;;;;;;;;;;-2.10;99.90;;;;;;12542607;28;20586;-82
2021/03/20 03:48:04;;;;;;;5.93;2.15;;;-2.20;99.90;;;;;;12542307;28;19934;-82
2021/03/20 03:54:06;;;;;;;6.10;2.10;;;-2.20;99.90;;;;;;12555350;28;20610;-82
2021/03/20 04:00:17;;;;;;;4.72;2.03;;;-2.20;99.90;;;;;;12544005;28;20648;-81
2021/03/20 04:06:59;;;;;;;7.57;2.47;;;-2.40;99.90;;;;;;12557918;28;20048;-82
2021/03/20 04:13:12;;;;;;;5.93;2.20;;;-2.30;99.90;;;;;;12519996;28;20522;-82
2021/03/20 04:19:39;;;;;;;5.30;2.53;;;-2.30;99.90;;;;;;12530367;28;20070;-82
2021/03/20 04:26:03;;;;;;;8.38;2.30;;;-2.10;99.90;;;;;;12538208;28;20066;-81
2021/03/20 04:32:27;;;;;;;8.35;2.42;;;-2.10;99.90;;;;;;12519800;28;20072;-81
2021/03/20 04:38:29;;;;;;;6.03;2.53;;;-1.90;99.90;;;;;;12536414;28;20424;-82
2021/03/20 04:44:34;;;;;;;9.80;2.58;;;-1.90;99.90;;;;;;12543256;28;20083;-81
2021/03/20 04:50:37;;;;;;;10.35;2.30;;;-2.00;99.90;;;;;;12543593;28;20551;-81
2021/03/20 04:57:01;;;;;;;6.57;2.85;;;-2.20;99.90;;;;;;12538665;28;20131;-81
2021/03/20 05:03:23;;;;;;;7.18;2.72;;;-2.20;99.90;;;;;;12546499;28;20100;-81
2021/03/20 05:09:28;;;;;;;6.28;2.63;;;-2.20;99.90;;;;;;12538634;28;20057;-81
2021/03/20 05:15:32;;;;;;;5.88;2.28;;;-2.10;99.90;;;;;;12536222;28;20094;-81
2021/03/20 05:21:40;;;;;;;7.55;2.42;;;-1.90;99.90;;;;;;12538543;28;20156;-81
2021/03/20 05:27:41;;;;;;;5.35;2.25;;;-1.90;99.90;;;;;;12541800;28;20056;-82
2021/03/20 05:33:46;;;;;;;8.00;2.78;;;-1.90;99.90;;;;;;12533018;28;20048;-81
2021/03/20 05:39:48;;;;;;;;;;;-1.90;99.90;;;;;;12546422;28;20455;-81
2021/03/20 05:46:34;;;;;;;4.75;1.95;;;-1.90;99.90;;;;;;12532233;28;20031;-81
2021/03/20 05:53:01;;;;;;;7.60;2.65;;;-2.00;99.90;;;;;;12517504;28;20045;-81
2021/03/20 05:59:13;;;;;;;6.93;2.38;;;-1.90;99.90;;;;;;12535540;28;20053;-81
2021/03/20 06:05:32;;;;;;;5.03;2.40;;;-1.50;99.90;;;;;;12525255;28;20068;-81
2021/03/20 06:11:38;;;;;;;4.28;1.83;;;-1.30;99.90;;;;;;12526674;28;20451;-81
2021/03/20 06:18:00;;;;;;;8.27;2.72;;;-0.60;99.90;;;;;;12540809;28;20095;-81
2021/03/20 06:24:31;;;;;;;6.60;2.75;;;-0.20;99.90;;;;;;12533444;28;20690;-81
2021/03/20 06:30:49;;;;;;;6.63;3.45;;;0.10;99.90;;;;;;12518163;28;20436;-81
2021/03/20 06:36:57;;;;;;;5.85;2.67;;;0.20;99.90;;;;;;12534979;28;20044;-81
2021/03/20 06:42:59;;;;;;;5.72;3.22;;;0.10;99.90;;;;;;12536630;28;20109;-81
2021/03/20 06:49:17;;;;;;;8.40;2.28;;;0.40;99.90;;;;;;12548657;28;20093;-81
2021/03/20 06:55:35;;;;;;;5.55;2.10;;;0.50;99.90;;;;;;12526172;28;20276;-82
2021/03/20 07:01:40;;;;;;;5.78;1.80;;;0.60;99.90;;;;;;12546899;28;20044;-82
2021/03/20 07:08:02;;;;;;;5.63;1.80;;;0.90;99.90;;;;;;12517358;28;20048;-83
2021/03/20 07:14:08;;;;;;;6.25;1.67;;;1.10;99.90;;;;;;12523679;28;20160;-83
2021/03/20 07:20:09;;;;;;;4.47;1.63;;;1.10;99.90;;;;;;12532763;28;20154;-83
2021/03/20 07:26:11;;;;;;;3.15;1.40;;;1.30;99.90;;;;;;12528589;28;20124;-82
2021/03/20 07:32:19;;;;;;;4.75;1.75;;;1.40;99.90;;;;;;12523467;28;20049;-82
2021/03/20 07:38:27;;;;;;;5.47;1.48;;;1.60;99.90;;;;;;12532432;28;20067;-82
2021/03/20 07:44:46;;;;;;;5.45;1.48;;;1.70;99.90;;;;;;12521262;28;20072;-82
2021/03/20 07:51:10;;;;;;;4.78;1.17;;;1.70;99.90;;;;;;12523302;28;21114;-83
2021/03/20 07:57:14;;;;;;;4.28;1.20;;;1.80;99.90;;;;;;12510655;28;20135;-82
2021/03/20 08:03:21;;;;;;;4.57;1.30;;;1.90;99.90;;;;;;12535503;28;20036;-82
2021/03/20 08:09:27;;;;;;;3.70;1.35;;;2.00;99.90;;;;;;12539440;28;20101;-83
2021/03/20 08:15:41;;;;;;;5.35;1.40;;;2.20;99.90;;;;;;12542463;28;20053;-83
2021/03/20 08:21:52;;;;;;;4.78;1.45;;;2.50;99.90;;;;;;12557183;28;20449;-83
2021/03/20 08:28:32;;;;;;;3.13;1.20;;;2.40;99.90;;;;;;12536095;28;20076;-83
2021/03/20 08:35:05;;;;;;;4.13;1.05;;;2.40;99.90;;;;;;12562509;28;20132;-83
2021/03/20 08:41:10;;;;;;;3.17;1.17;;;2.60;99.90;;;;;;12546042;28;20040;-83
2021/03/20 08:47:30;;;;;;;2.85;1.10;;;3.10;99.90;;;;;;12550745;28;20052;-84
2021/03/20 08:53:45;;;;;;;2.33;0.80;;;3.50;99.90;;;;;;12539299;28;20508;-83
2021/03/20 08:59:50;;;;;;;3.40;0.90;;;3.60;99.90;;;;;;12537735;28;20049;-83
2021/03/20 09:06:22;;;;;;;2.60;0.80;;;3.70;99.90;;;;;;12535513;28;20090;-83
2021/03/20 09:12:29;;;;;;;2.53;1.05;;;3.50;99.90;;;;;;12511305;28;20072;-84
2021/03/20 09:18:33;;;;;;;2.95;1.23;;;3.50;99.90;;;;;;12541444;28;20075;-84
2021/03/20 09:24:35;;;;;;;2.65;0.85;;;3.50;99.90;;;;;;12528872;28;20045;-83
2021/03/20 09:30:48;;;;;;;1.45;0.70;;;3.70;99.90;;;;;;12530273;28;20047;-83
2021/03/20 09:36:51;;;;;;;2.45;0.98;;;3.80;99.90;;;;;;12540971;28;20060;-83
2021/03/20 09:42:52;;;;;;;3.58;0.85;;;3.50;99.90;;;;;;12540346;28;20123;-83
2021/03/20 09:48:55;;;;;;;3.25;1.17;;;3.70;99.90;;;;;;12530671;28;20045;-83
2021/03/20 09:55:17;;;;;;;1.77;0.82;;;4.00;99.90;;;;;;12519060;28;20101;-84
2021/03/20 10:01:19;;;;;;;2.78;0.90;;;4.30;99.90;;;;;;12527008;28;20091;-84
2021/03/20 10:07:21;;;;;;;5.20;1.00;;;4.30;99.90;;;;;;12521363;28;20044;-84
2021/03/20 10:13:39;;;;;;;4.95;0.93;;;4.30;99.90;;;;;;12520661;28;20079;-83
2021/03/20 10:20:08;;;;;;;2.53;0.90;;;4.50;99.90;;;;;;12529242;28;20074;-84
2021/03/20 10:26:42;;;;;;;2.88;1.00;;;4.80;99.90;;;;;;12527098;28;20123;-84
2021/03/20 10:33:02;;;;;;;2.50;0.80;;;4.80;99.90;;;;;;12540151;28;20059;-82
2021/03/20 10:39:30;;;;;;;4.20;0.95;;;4.50;99.90;;;;;;12535395;28;20500;-84
2021/03/20 10:45:38;;;;;;;6.68;1.13;;;4.80;99.90;;;;;;12531930;28;20373;-83
2021/03/20 10:51:41;;;;;;;2.05;0.80;;;4.90;99.90;;;;;;12526278;28;20451;-84
2021/03/20 10:57:42;;;;;;;1.20;0.60;;;5.00;99.90;;;;;;12516590;28;20145;-83
2021/03/20 11:03:46;;;;;;;3.60;1.13;;;5.30;99.90;;;;;;12536472;28;20508;-84
2021/03/20 11:09:48;;;;;;;2.65;1.20;;;5.60;99.90;;;;;;12528797;28;20465;-84
2021/03/20 11:15:51;;;;;;;2.88;0.93;;;5.90;99.90;;;;;;12520684;28;20618;-84
2021/03/20 11:22:00;;;;;;;2.53;0.85;;;5.80;99.90;;;;;;12530758;28;20049;-84
2021/03/20 12:06:49;;;;;;;4.63;1.80;;;5.80;99.90;;;;;;12524625;27;20444;-82
2021/03/20 12:12:53;;;;;;;3.42;1.30;;;5.80;99.90;;;;;;12490409;28;20049;-82
2021/03/20 12:19:22;;;;;;;3.28;1.20;;;5.80;99.90;;;;;;12458847;28;20068;-82
2021/03/20 12:25:32;;;;;;;3.15;1.30;;;5.60;99.90;;;;;;12468958;28;20079;-81
2021/03/20 12:31:33;;;;;;;6.18;1.90;;;5.70;99.90;;;;;;12490425;28;20046;-82
2021/03/20 12:37:35;;;;;;;3.20;1.58;;;5.60;99.90;;;;;;12491236;28;20050;-81
2021/03/20 12:43:38;;;;;;;3.30;1.30;;;5.90;99.90;;;;;;12489324;28;20053;-81
2021/03/20 12:49:41;;;;;;;2.90;1.30;;;6.00;99.90;;;;;;12491730;28;20054;-81
2021/03/20 12:55:42;;;;;;;3.63;1.50;;;5.90;99.90;;;;;;12488010;28;20045;-81
2021/03/20 13:01:44;;;;;;;4.40;1.60;;;6.10;99.90;;;;;;12486612;28;20046;-81
2021/03/20 13:07:45;;;;;;;3.38;1.27;;;6.00;99.90;;;;;;12468633;28;20045;-82
2021/03/20 13:13:47;;;;;;;3.00;1.40;;;6.00;99.90;;;;;;12455323;28;20140;-83
2021/03/20 13:19:48;;;;;;;2.88;1.48;;;5.70;99.90;;;;;;12430371;28;20102;-82
2021/03/20 13:25:50;;;;;;;4.18;1.70;;;6.00;99.90;;;;;;12427580;28;20042;-83
2021/03/20 13:31:52;;;;;;;5.53;1.75;;;6.50;99.90;;;;;;12425802;28;20464;-82
2021/03/20 13:37:57;;;;;;;3.08;1.63;;;6.60;99.90;;;;;;12424726;28;20050;-82
2021/03/20 13:43:59;;;;;;;;;;;6.50;99.90;;;;;;12416210;28;20046;-82
2021/03/20 13:50:00;;;;;;;4.15;1.70;;;6.20;99.90;;;;;;12434287;28;20326;-83
2021/03/20 13:56:04;;;;;;;5.50;2.15;;;6.10;99.90;;;;;;12425842;28;20041;-85
2021/03/20 14:02:07;;;;;;;3.60;1.70;;;6.00;99.90;;;;;;12450384;28;20360;-82
2021/03/20 14:08:09;;;;;;;4.13;1.70;;;5.90;99.90;;;;;;12465143;28;20307;-83
2021/03/20 14:14:11;;;;;;;4.50;1.80;;;5.90;99.90;;;;;;12414360;28;20081;-83
2021/03/20 14:20:29;;;;;;;3.97;1.90;;;6.30;99.90;;;;;;12424351;28;20124;-83
2021/03/20 14:26:31;;;;;;;4.15;2.03;;;6.20;99.90;;;;;;12417077;28;20046;-83
2021/03/20 14:32:32;;;;;;;4.07;2.00;;;6.20;99.90;;;;;;12431518;28;20056;-83
2021/03/20 14:38:34;;;;;;;3.10;1.83;;;6.10;99.90;;;;;;12425237;28;20103;-82
2021/03/20 14:44:35;;;;;;;3.78;2.00;;;6.40;99.90;;;;;;12417811;28;20053;-83
2021/03/20 14:50:38;;;;;;;5.88;2.40;;;6.20;99.90;;;;;;12426659;28;20480;-84
2021/03/20 14:56:39;;;;;;;4.82;2.05;;;5.90;99.90;;;;;;12428125;28;20053;-83
2021/03/20 15:02:40;;;;;;;6.03;2.50;;;6.00;99.90;;;;;;12425297;28;20065;-83
2021/03/20 15:08:43;;;;;;;5.53;2.78;;;6.40;99.90;;;;;;12423786;28;20507;-83
2021/03/20 15:14:44;;;;;;;3.97;2.20;;;6.40;99.90;;;;;;12416852;28;20053;-84
2021/03/20 15:20:46;;;;;;;4.93;2.40;;;6.30;99.90;;;;;;12426063;28;20046;-82
2021/03/20 15:26:55;;;;;;;4.18;2.58;;;6.40;99.90;;;;;;12424668;28;20046;-82
2021/03/20 15:32:56;;;;;;;4.72;2.40;;;6.30;99.90;;;;;;12425301;28;20132;-82
2021/03/20 15:38:58;;;;;;;10.25;2.70;;;6.20;99.90;;;;;;12423933;28;20081;-82
2021/03/20 15:44:59;;;;;;;5.05;2.67;;;6.50;99.90;;;;;;12427381;28;20042;-83
2021/03/20 15:51:06;;;;;;;4.95;2.88;;;6.20;99.90;;;;;;12411809;28;20045;-83
2021/03/20 15:57:08;;;;;;;7.25;3.03;;;6.10;99.90;;;;;;12437787;28;20144;-84
2021/03/20 16:03:10;;;;;;;7.75;2.83;;;6.10;99.90;;;;;;12425126;28;20061;-82
2021/03/20 16:09:11;;;;;;;6.25;3.50;;;6.00;99.90;;;;;;12430003;28;20045;-84
2021/03/20 16:15:14;;;;;;;7.75;3.40;;;6.00;99.90;;;;;;12416880;28;20045;-83
2021/03/20 16:21:20;;;;;;;6.68;3.70;;;5.60;99.90;;;;;;12420538;28;20540;-84
2021/03/20 16:27:21;;;;;;;6.20;3.10;;;5.80;99.90;;;;;;12414090;28;20067;-84
2021/03/20 16:33:26;;;;;;;7.03;3.25;;;5.80;99.90;;;;;;12417703;28;20579;-82
2021/03/20 16:39:28;;;;;;;6.65;3.50;;;5.80;99.90;;;;;;12410537;28;20045;-82
2021/03/20 16:45:49;;;;;;;5.97;3.70;;;5.80;99.90;;;;;;12415617;28;20112;-83
2021/03/20 16:52:05;;;;;;;9.35;4.90;;;5.50;99.90;;;;;;12426928;28;20581;-82
2021/03/20 16:58:06;;;;;;;8.63;4.25;;;5.70;99.90;;;;;;12426589;28;20487;-82
2021/03/20 17:04:08;;;;;;;7.75;3.50;;;5.60;99.90;;;;;;12430453;28;20136;-82
2021/03/20 17:10:11;;;;;;;6.80;3.63;;;5.60;99.90;;;;;;12437968;28;20054;-81
2021/03/20 17:16:12;;;;;;;5.85;3.58;;;5.60;99.90;;;;;;12434074;28;20062;-82
2021/03/20 17:22:14;;;;;;;7.25;3.53;;;5.60;99.90;;;;;;12429307;28;20045;-83
2021/03/20 17:28:16;;;;;;;7.68;4.10;;;5.50;99.90;;;;;;12420184;28;20470;-83
2021/03/20 17:34:17;;;;;;;9.50;3.97;;;5.10;99.90;;;;;;12423729;28;20084;-83
2021/03/20 17:40:21;;;;;;;7.05;3.90;;;4.90;99.90;;;;;;12425882;28;20160;-83
2021/03/20 17:46:23;;;;;;;6.65;4.07;;;4.80;99.90;;;;;;12429302;28;20073;-83
2021/03/20 17:52:25;;;;;;;8.02;4.30;;;4.80;99.90;;;;;;12427862;28;20052;-83
2021/03/20 17:58:28;;;;;;;8.82;4.72;;;4.80;99.90;;;;;;12429445;28;20345;-83
2021/03/20 18:04:29;;;;;;;8.05;4.65;;;4.60;99.90;;;;;;12444400;28;20417;-84
2021/03/20 18:10:41;;;;;;;7.07;4.13;;;4.70;99.90;;;;;;12459684;28;20057;-83
2021/03/20 18:16:42;;;;;;;7.60;4.88;;;4.80;99.90;;;;;;12413678;28;20038;-83
2021/03/20 18:22:44;;;;;;;8.05;4.78;;;4.80;99.90;;;;;;12431689;28;20133;-83
2021/03/20 18:28:46;;;;;;;8.05;4.90;;;4.80;99.90;;;;;;12425639;28;20046;-83
2021/03/20 18:34:47;;;;;;;8.52;5.10;;;4.70;99.90;;;;;;12424363;28;20049;-83
2021/03/20 18:40:50;;;;;;;7.65;5.07;;;4.70;99.90;;;;;;12433043;28;20050;-83
2021/03/20 18:46:51;;;;;;;9.15;5.20;;;4.80;99.90;;;;;;12432924;23;20568;-41
2021/03/20 18:52:58;;;;;;;9.60;5.22;;;4.70;99.90;;;;;;12361693;28;20457;-44
2021/03/20 18:59:00;;;;;;;9.88;5.22;;;4.70;99.90;;;;;;12363375;28;20177;-43
2021/03/20 19:05:02;;;;;;;11.93;6.05;;;4.80;99.90;;;;;;12369685;28;20120;-43
2021/03/20 19:11:08;;;;;;;9.68;5.53;;;4.80;99.90;;;;;;12350712;28;20058;-43
2021/03/20 19:17:10;;;;;;;9.70;5.45;;;4.80;99.90;;;;;;12355209;28;20453;-42
2021/03/20 19:23:12;;;;;;;10.20;5.30;;;4.80;99.90;;;;;;12352977;28;20046;-42
2021/03/20 19:29:13;;;;;;;9.07;4.70;;;4.80;99.90;;;;;;12352156;28;20124;-45
2021/03/20 19:35:15;;;;;;;12.05;5.55;;;4.80;99.90;;;;;;12353399;28;20496;-44
2021/03/20 19:41:17;;;;;;;9.52;5.50;;;4.80;99.90;;;;;;12354952;28;20103;-42
2021/03/20 19:47:19;;;;;;;7.28;4.65;;;4.90;99.90;;;;;;12364397;28;20105;-44
2021/03/20 19:53:23;;;;;;;12.05;5.50;;;4.90;99.90;;;;;;12361658;28;20058;-43
2021/03/20 19:59:24;;;;;;;8.27;5.25;;;5.00;99.90;;;;;;12366176;28;20072;-42
2021/03/20 20:05:25;;;;;;;8.50;5.57;;;5.20;99.90;;;;;;12349268;28;20065;-44
2021/03/20 20:11:27;;;;;;;8.50;5.45;;;5.30;99.90;;;;;;12352856;28;20038;-41
2021/03/20 20:17:28;;;;;;;14.93;6.75;;;5.40;99.90;;;;;;12356699;28;20161;-43
2021/03/20 20:23:30;;;;;;;10.38;6.70;;;5.50;99.90;;;;;;12365596;28;20049;-42
2021/03/20 20:29:31;;;;;;;12.48;7.60;;;5.40;99.90;;;;;;12370462;28;20050;-42
2021/03/20 20:35:34;;;;;;;11.80;8.85;;;5.50;99.90;;;;;;12370330;28;20050;-42
2021/03/20 20:41:37;;;;;;;15.65;9.38;;;5.50;99.90;;;;;;12367747;28;20052;-42
2021/03/20 20:47:40;;;;;;;14.63;9.00;;;5.40;99.90;;;;;;12370297;28;20046;-42
2021/03/20 20:53:43;;;;;;;;;;;5.40;99.90;;;;;;12369432;28;20049;-42
2021/03/20 20:59:44;;;;;;;13.02;7.75;;;5.50;99.90;;;;;;12365713;28;19929;-42
2021/03/20 21:05:46;;;;;;;9.40;7.03;;;5.50;99.90;;;;;;12364089;28;20093;-42
2021/03/20 21:11:47;;;;;;;12.25;7.95;;;5.60;99.90;;;;;;12363209;28;20051;-42
2021/03/20 21:17:52;;;;;;;10.93;7.57;;;5.60;99.90;;;;;;12359583;28;20093;-43
2021/03/20 21:23:53;;;;;;;10.50;6.95;;;5.60;99.90;;;;;;12385172;28;20077;-43
2021/03/20 21:29:55;;;;;;;10.77;7.72;;;5.60;99.90;;;;;;12349932;28;20046;-42
2021/03/20 21:35:56;;;;;;;11.15;7.40;;;5.50;99.90;;;;;;12361879;28;20056;-42
2021/03/20 21:41:58;;;;;;;8.45;6.88;;;5.40;99.90;;;;;;12362068;28;20119;-43
2021/03/20 21:47:59;;;;;;;10.57;7.90;;;5.50;99.90;;;;;;12363088;28;20058;-42
2021/03/20 21:54:01;;;;;;;12.73;8.20;;;5.40;99.90;;;;;;12366196;28;20053;-42
2021/03/20 22:00:05;;;;;;;13.50;9.00;;;5.40;99.90;;;;;;12361942;28;20057;-43
2021/03/20 22:06:06;;;;;;;13.32;9.75;;;5.30;99.90;;;;;;12366525;28;20097;-42
2021/03/20 22:12:08;;;;;;;13.00;9.98;;;5.40;99.90;;;;;;12357182;28;20133;-44
2021/03/20 22:18:09;;;;;;;11.82;8.82;;;5.20;99.90;;;;;;12369011;28;20050;-42
2021/03/20 22:24:10;;;;;;;13.18;10.00;;;5.20;99.90;;;;;;12361824;28;20054;-42
2021/03/20 22:30:12;;;;;;;17.20;10.85;;;5.20;99.90;;;;;;12369756;28;20089;-42
2021/03/20 22:36:16;;;;;;;12.40;9.82;;;5.30;99.90;;;;;;12354682;28;20054;-42
2021/03/20 22:42:17;;;;;;;12.52;9.02;;;5.20;99.90;;;;;;12360674;28;20050;-42
2021/03/20 22:48:20;;;;;;;11.32;8.20;;;5.20;99.90;;;;;;12368992;28;20050;-43
2021/03/20 22:54:22;;;;;;;13.55;8.10;;;5.20;99.90;;;;;;12366919;28;20181;-42
2021/03/20 23:00:36;;;;;;;10.30;8.30;;;5.10;99.90;;;;;;12370203;28;20046;-42
2021/03/20 23:06:38;;;;;;;9.90;7.32;;;5.20;99.90;;;;;;12370745;28;20093;-42
2021/03/20 23:12:42;;;;;;;10.55;6.57;;;5.20;99.90;;;;;;12363344;28;20142;-42
2021/03/20 23:18:44;;;;;;;8.15;6.32;;;5.10;99.90;;;;;;12372921;28;20049;-43
2021/03/20 23:24:45;;;;;;;8.10;5.55;;;5.20;99.90;;;;;;12356847;28;20120;-42
2021/03/20 23:30:47;;;;;;;6.78;4.30;;;5.10;99.90;;;;;;12363728;28;20052;-42
2021/03/20 23:36:49;;;;;;;7.60;4.25;;;5.10;99.90;;;;;;12373384;28;20089;-42
2021/03/20 23:42:51;;;;;;;5.88;3.70;;;5.10;99.90;;;;;;12371215;28;20663;-42
2021/03/20 23:48:53;;;;;;;5.00;3.72;;;5.10;99.90;;;;;;12364520;28;20058;-42
2021/03/20 23:54:54;;;;;;;5.38;3.58;;;5.20;99.90;;;;;;12370055;28;20161;-42
